Time;durP1;ratioP1;P1;durP2;ratioP2;P2;SDS_P1;SDS_P2;PMS_P1;PMS_P2;Temp;Humidity;BMP_temperature;BMP_pressure;BME280_temperature;BME280_humidity;BME280_pressure;Samples;Min_cycle;Max_cycle;Signal;HPM_P1;HPM_P2
2021/12/13 00:02:19;;;;;;;1.60;1.50;;;;;;;;;;7329409;19;153569;-12
2021/12/13 00:05:00;;;;;;;1.58;1.48;;;;;;;;;;7329225;19;161983;-13
2021/12/13 00:07:36;;;;;;;1.40;1.40;;;;;;;;;;7329666;19;162387;-14
2021/12/13 00:10:17;;;;;;;1.25;1.25;;;;;;;;;;7329236;19;154075;-14
2021/12/13 00:12:53;;;;;;;1.50;1.40;;;;;;;;;;7327571;19;153642;-15
2021/12/13 00:15:30;;;;;;;1.73;1.63;;;;;;;;;;7328616;19;162037;-14
2021/12/13 00:18:04;;;;;;;1.40;1.30;;;;;;;;;;7328598;19;162314;-14
2021/12/13 00:20:40;;;;;;;1.25;1.25;;;;;;;;;;7328603;19;154031;-14
2021/12/13 00:23:19;;;;;;;1.40;1.35;;;;;;;;;;7331008;19;153476;-14
2021/12/13 00:25:57;;;;;;;1.42;1.25;;;;;;;;;;7328502;19;161881;-14
2021/12/13 00:28:33;;;;;;;1.63;1.50;;;;;;;;;;7328330;19;162489;-14
2021/12/13 00:31:20;;;;;;;1.58;1.48;;;;;;;;;;7329900;19;154010;-12
2021/12/13 00:34:09;;;;;;;1.30;1.20;;;;;;;;;;7327644;19;153467;-14
2021/12/13 00:36:47;;;;;;;1.80;1.70;;;;;;;;;;7328286;19;161835;-13
2021/12/13 00:39:23;;;;;;;1.50;1.40;;;;;;;;;;7332443;19;162389;-12
2021/12/13 00:42:06;;;;;;;1.52;1.42;;;;;;;;;;7328592;19;154096;-12
2021/12/13 00:44:42;;;;;;;1.45;1.35;;;;;;;;;;7330593;19;153510;-13
2021/12/13 00:47:20;;;;;;;2.17;1.23;;;;;;;;;;7325740;19;161867;-13
2021/12/13 00:49:57;;;;;;;1.42;1.35;;;;;;;;;;7326928;19;162673;-13
2021/12/13 13:30:33;;;;;;;2.97;1.90;;;;;;;;;;7370565;19;132459;-12
2021/12/13 13:33:06;;;;;;;2.17;2.00;;;;;;;;;;7364278;19;153302;-15
2021/12/13 13:35:37;;;;;;;1.70;1.60;;;;;;;;;;7367509;19;161815;-15
2021/12/13 13:38:18;;;;;;;1.90;1.80;;;;;;;;;;7366134;19;162322;-16
2021/12/13 13:40:49;;;;;;;2.13;1.92;;;;;;;;;;7364677;19;153883;-15
2021/12/13 13:43:21;;;;;;;1.70;1.60;;;;;;;;;;7364401;19;153479;-15
2021/12/13 13:45:57;;;;;;;2.55;2.05;;;;;;;;;;7364055;19;162208;-14
2021/12/13 13:48:31;;;;;;;2.85;1.95;;;;;;;;;;7362001;19;162421;-16
2021/12/13 13:51:07;;;;;;;4.07;3.35;;;;;;;;;;7367504;19;153900;-15
2021/12/13 13:53:42;;;;;;;3.63;3.00;;;;;;;;;;7366631;19;153965;-13
2021/12/13 13:56:17;;;;;;;3.75;3.35;;;;;;;;;;7363605;19;162071;-13
2021/12/13 13:58:52;;;;;;;3.47;2.55;;;;;;;;;;7363526;19;162508;-13
2021/12/13 14:01:30;;;;;;;2.75;2.55;;;;;;;;;;7367305;19;154186;-14
2021/12/13 14:04:04;;;;;;;3.17;2.50;;;;;;;;;;7366482;19;153556;-15
2021/12/13 14:06:39;;;;;;;2.92;2.53;;;;;;;;;;7366369;19;161980;-14
2021/12/13 14:09:12;;;;;;;2.92;2.47;;;;;;;;;;7365920;19;162633;-14
2021/12/13 14:11:47;;;;;;;;;;;;;;;;;;7366430;19;153939;-14
2021/12/13 14:14:20;;;;;;;3.17;2.40;;;;;;;;;;7367129;19;153316;-14
2021/12/13 14:16:56;;;;;;;2.63;2.40;;;;;;;;;;7366696;19;161802;-14
2021/12/13 14:19:35;;;;;;;4.03;2.67;;;;;;;;;;7366712;19;162618;-14
2021/12/13 14:22:11;;;;;;;4.47;2.47;;;;;;;;;;7285032;19;154010;-14
2021/12/13 14:24:44;;;;;;;3.65;2.60;;;;;;;;;;7318321;19;153652;-14
2021/12/13 14:27:25;;;;;;;3.63;2.35;;;;;;;;;;7365366;19;161886;-14
2021/12/13 14:30:13;;;;;;;2.50;2.30;;;;;;;;;;7361448;19;162409;-14
2021/12/13 14:32:47;;;;;;;4.03;2.30;;;;;;;;;;7366534;19;155162;-13
2021/12/13 14:35:24;;;;;;;4.03;2.60;;;;;;;;;;7365599;19;153623;-14
2021/12/13 14:38:02;;;;;;;4.55;3.13;;;;;;;;;;7360329;19;161971;-13
2021/12/13 14:40:44;;;;;;;4.30;2.50;;;;;;;;;;7347254;19;162325;-15
2021/12/13 14:43:22;;;;;;;2.92;2.67;;;;;;;;;;7334076;19;153965;-15
2021/12/13 14:45:55;;;;;;;4.70;3.20;;;;;;;;;;7333862;19;153636;-14
2021/12/13 14:48:32;;;;;;;4.07;3.22;;;;;;;;;;7333805;19;161794;-13
2021/12/13 14:51:07;;;;;;;3.47;2.75;;;;;;;;;;7332694;19;162524;-14
2021/12/13 14:53:43;;;;;;;2.88;2.58;;;;;;;;;;7337528;19;153796;-15
2021/12/13 14:56:18;;;;;;;3.40;2.60;;;;;;;;;;7332402;19;153786;-14
2021/12/13 14:58:54;;;;;;;3.10;2.90;;;;;;;;;;7335338;19;162062;-14
2021/12/13 15:01:30;;;;;;;2.90;2.58;;;;;;;;;;7336674;19;162331;-15
2021/12/13 15:04:09;;;;;;;2.55;2.35;;;;;;;;;;7336972;19;154267;-16
2021/12/13 15:06:44;;;;;;;2.58;2.38;;;;;;;;;;7336213;19;153653;-15
2021/12/13 15:09:19;;;;;;;3.10;2.85;;;;;;;;;;7332938;19;161774;-15
2021/12/13 15:11:54;;;;;;;2.97;2.60;;;;;;;;;;7332188;19;162507;-26
2021/12/13 15:14:29;;;;;;;2.80;2.50;;;;;;;;;;7333332;19;154060;-13
2021/12/13 15:17:03;;;;;;;3.05;2.60;;;;;;;;;;7333055;19;153696;-14
2021/12/13 15:19:37;;;;;;;3.10;2.80;;;;;;;;;;7332857;19;161863;-14
2021/12/13 15:22:10;;;;;;;2.55;2.33;;;;;;;;;;7332508;19;163119;-15
2021/12/13 15:24:41;;;;;;;2.60;2.40;;;;;;;;;;7333141;19;153978;-15
2021/12/13 15:27:16;;;;;;;2.58;2.38;;;;;;;;;;7332872;19;153542;-15
2021/12/13 15:29:47;;;;;;;2.42;2.22;;;;;;;;;;7330337;19;161865;-14
2021/12/13 15:32:21;;;;;;;2.80;2.35;;;;;;;;;;7331050;19;162518;-15
2021/12/13 15:34:58;;;;;;;2.75;2.00;;;;;;;;;;7332954;19;153893;-14
2021/12/13 15:37:32;;;;;;;6.95;1.73;;;;;;;;;;7335958;19;153720;-14
2021/12/13 15:40:12;;;;;;;1.70;1.60;;;;;;;;;;7332189;19;161800;-14
2021/12/13 15:42:47;;;;;;;2.45;1.55;;;;;;;;;;7332097;19;162540;-15
2021/12/13 15:45:23;;;;;;;2.00;1.85;;;;;;;;;;7332112;19;154231;-15
2021/12/13 15:50:49;;;;;;;1.90;1.80;;;;;;;;;;7328692;19;162124;-15
2021/12/13 15:53:21;;;;;;;2.85;1.85;;;;;;;;;;7329362;19;162400;-23
2021/12/13 15:55:54;;;;;;;2.20;2.00;;;;;;;;;;7332104;19;154208;-14
2021/12/13 15:58:31;;;;;;;3.13;2.40;;;;;;;;;;7331684;19;153745;-14
2021/12/13 16:01:16;;;;;;;1.73;1.63;;;;;;;;;;7332236;19;161820;-15
2021/12/13 16:03:51;;;;;;;2.03;1.83;;;;;;;;;;7331906;19;162608;-13
2021/12/13 16:06:30;;;;;;;1.98;1.70;;;;;;;;;;7334724;19;153977;-14
2021/12/13 16:09:07;;;;;;;2.38;1.88;;;;;;;;;;7330752;19;153598;-14
2021/12/13 16:11:43;;;;;;;1.85;1.73;;;;;;;;;;7328988;19;161851;-14
2021/12/13 16:14:34;;;;;;;2.85;2.03;;;;;;;;;;7330043;19;162712;-14
2021/12/13 16:17:19;;;;;;;5.07;2.45;;;;;;;;;;7332598;19;153957;-14
2021/12/13 16:19:58;;;;;;;3.42;1.85;;;;;;;;;;7330314;19;153662;-14
2021/12/13 16:22:43;;;;;;;8.45;2.65;;;;;;;;;;7330468;19;161798;-15
2021/12/13 16:25:23;;;;;;;2.58;2.10;;;;;;;;;;7329949;19;162796;-14
2021/12/13 16:27:57;;;;;;;2.40;2.20;;;;;;;;;;7330128;19;153929;-15
2021/12/13 16:30:33;;;;;;;2.08;1.92;;;;;;;;;;7327600;19;153607;-15
2021/12/13 16:33:08;;;;;;;1.70;1.60;;;;;;;;;;7330085;19;161891;-15
2021/12/13 16:35:43;;;;;;;4.20;2.60;;;;;;;;;;7328786;19;162520;-14
2021/12/13 16:38:18;;;;;;;3.83;2.58;;;;;;;;;;7331389;19;154305;-15
2021/12/13 16:41:00;;;;;;;4.45;2.42;;;;;;;;;;7333061;19;153535;-13
2021/12/13 16:43:34;;;;;;;4.35;2.60;;;;;;;;;;7333332;19;161851;-14
2021/12/13 16:46:06;;;;;;;;;;;;;;;;;;7333144;19;162371;-15
2021/12/13 16:48:40;;;;;;;5.05;2.75;;;;;;;;;;7334140;19;154247;-14
2021/12/13 16:51:16;;;;;;;4.15;2.72;;;;;;;;;;7327687;19;153564;-14
2021/12/13 16:53:50;;;;;;;4.28;2.63;;;;;;;;;;7331686;19;162070;-14
2021/12/13 16:56:23;;;;;;;3.92;2.80;;;;;;;;;;7329430;19;162421;-15
2021/12/13 16:58:57;;;;;;;4.18;2.58;;;;;;;;;;7329925;19;153974;-15
2021/12/13 17:01:33;;;;;;;5.55;2.72;;;;;;;;;;7330545;19;153790;-15
2021/12/13 17:04:09;;;;;;;3.03;2.72;;;;;;;;;;7331233;19;161920;-13
2021/12/13 17:06:49;;;;;;;4.20;2.58;;;;;;;;;;7327355;19;162457;-14
2021/12/13 17:09:24;;;;;;;3.63;2.67;;;;;;;;;;7334119;19;154060;-14
2021/12/13 17:12:09;;;;;;;3.58;2.78;;;;;;;;;;7326574;19;153521;-14
2021/12/13 17:14:51;;;;;;;5.07;2.53;;;;;;;;;;7327241;19;162608;-13
2021/12/13 17:17:31;;;;;;;4.00;2.78;;;;;;;;;;7329783;19;162361;-14
2021/12/13 17:20:03;;;;;;;3.25;2.65;;;;;;;;;;7330091;19;154108;-14
2021/12/13 17:22:38;;;;;;;5.27;2.83;;;;;;;;;;7329914;19;153521;-15
2021/12/13 17:25:12;;;;;;;4.07;2.50;;;;;;;;;;7329970;19;161813;-15
2021/12/13 17:27:44;;;;;;;3.88;2.58;;;;;;;;;;7329727;19;162749;-14
2021/12/13 17:30:22;;;;;;;2.55;2.25;;;;;;;;;;7327852;19;153914;-15
2021/12/13 17:32:57;;;;;;;2.88;2.60;;;;;;;;;;7327559;19;153632;-15
2021/12/13 17:35:35;;;;;;;3.33;2.25;;;;;;;;;;7329556;19;162025;-14
2021/12/13 17:38:09;;;;;;;2.72;2.25;;;;;;;;;;7329520;19;162380;-14
2021/12/13 17:40:45;;;;;;;2.45;1.90;;;;;;;;;;7329661;19;153938;-14
2021/12/13 17:43:20;;;;;;;2.53;2.00;;;;;;;;;;7329584;19;153505;-15
2021/12/13 17:45:56;;;;;;;2.40;1.83;;;;;;;;;;7329064;19;161990;-14
2021/12/13 17:48:32;;;;;;;2.85;2.20;;;;;;;;;;7328861;19;162406;-13
2021/12/13 17:51:11;;;;;;;2.40;2.20;;;;;;;;;;7328966;19;153975;-14
2021/12/13 17:53:50;;;;;;;2.35;2.15;;;;;;;;;;7328751;19;153564;-14
2021/12/13 17:56:34;;;;;;;2.70;2.20;;;;;;;;;;7328449;19;161969;-15
2021/12/13 17:59:08;;;;;;;1.92;1.75;;;;;;;;;;7328378;19;162565;-15
2021/12/13 18:01:42;;;;;;;2.58;2.13;;;;;;;;;;7328576;19;154008;-15
2021/12/13 18:04:16;;;;;;;1.90;1.80;;;;;;;;;;7328322;19;153526;-15
2021/12/13 18:06:50;;;;;;;2.60;2.40;;;;;;;;;;7327915;19;161826;-15
2021/12/13 18:09:35;;;;;;;2.17;1.95;;;;;;;;;;7327940;19;162393;-15
2021/12/13 18:12:29;;;;;;;2.35;2.10;;;;;;;;;;7326984;19;153959;-16
2021/12/13 18:15:26;;;;;;;1.83;1.70;;;;;;;;;;7328607;19;153569;-15
2021/12/13 18:18:03;;;;;;;2.20;2.00;;;;;;;;;;7334750;19;162524;-15
2021/12/13 18:20:41;;;;;;;2.20;2.00;;;;;;;;;;7334435;19;162353;-15
2021/12/13 18:23:20;;;;;;;2.15;2.00;;;;;;;;;;7334802;19;153942;-15
2021/12/13 18:25:58;;;;;;;1.95;1.80;;;;;;;;;;7334528;19;153804;-15
2021/12/13 18:28:37;;;;;;;2.78;2.33;;;;;;;;;;7333698;19;161776;-15
2021/12/13 18:31:11;;;;;;;2.55;2.38;;;;;;;;;;7334010;19;162447;-15
2021/12/13 18:33:51;;;;;;;2.92;2.03;;;;;;;;;;7332244;19;153965;-19
2021/12/13 18:36:33;;;;;;;1.75;1.65;;;;;;;;;;7334118;19;153548;-15
2021/12/13 18:39:07;;;;;;;1.73;1.63;;;;;;;;;;7332427;19;161993;-15
2021/12/13 18:41:42;;;;;;;2.08;1.88;;;;;;;;;;7333655;19;162406;-19
2021/12/13 18:44:30;;;;;;;2.40;2.20;;;;;;;;;;7334175;19;153965;-15
2021/12/13 18:47:15;;;;;;;1.88;1.77;;;;;;;;;;7334032;19;154265;-15
2021/12/13 18:49:51;;;;;;;2.15;1.95;;;;;;;;;;7333327;19;161817;-16
2021/12/13 18:52:38;;;;;;;2.33;2.20;;;;;;;;;;7332473;19;162655;-15
2021/12/13 18:55:20;;;;;;;2.45;2.25;;;;;;;;;;7333617;19;154018;-15
2021/12/13 18:57:57;;;;;;;2.50;2.30;;;;;;;;;;7333401;19;153415;-15
2021/12/13 19:00:38;;;;;;;2.60;2.30;;;;;;;;;;7332057;19;161994;-16
2021/12/13 19:03:17;;;;;;;2.10;2.00;;;;;;;;;;7332928;19;162360;-14
2021/12/13 19:05:53;;;;;;;2.45;2.25;;;;;;;;;;7333429;19;153992;-14
2021/12/13 19:08:33;;;;;;;2.42;2.22;;;;;;;;;;7333147;19;153591;-13
2021/12/13 19:11:14;;;;;;;1.95;1.83;;;;;;;;;;7332440;19;161867;-13
2021/12/13 19:13:52;;;;;;;2.97;2.05;;;;;;;;;;7330826;19;162344;-15
2021/12/13 19:16:37;;;;;;;2.22;2.03;;;;;;;;;;7336457;19;154020;-13
2021/12/13 19:19:12;;;;;;;1.92;1.83;;;;;;;;;;7336582;19;153605;-13
2021/12/13 19:21:48;;;;;;;2.53;1.85;;;;;;;;;;7335922;19;162139;-14
2021/12/13 19:24:23;;;;;;;1.77;1.67;;;;;;;;;;7331615;19;162643;-14
2021/12/13 19:26:58;;;;;;;1.77;1.67;;;;;;;;;;7332717;19;154070;-15
2021/12/13 19:29:35;;;;;;;2.28;2.08;;;;;;;;;;7331282;19;153566;-14
2021/12/13 19:32:19;;;;;;;2.30;2.10;;;;;;;;;;7332774;19;162013;-14
2021/12/13 19:34:54;;;;;;;2.10;2.00;;;;;;;;;;7335306;19;162394;-14
2021/12/13 19:37:37;;;;;;;2.05;1.95;;;;;;;;;;7334645;19;153990;-14
2021/12/13 19:40:22;;;;;;;1.70;1.60;;;;;;;;;;7335776;19;153583;-14
2021/12/13 19:43:03;;;;;;;1.80;1.70;;;;;;;;;;7335332;19;162233;-15
2021/12/13 19:45:37;;;;;;;1.85;1.75;;;;;;;;;;7335960;19;162786;-14
2021/12/13 19:48:16;;;;;;;2.10;1.90;;;;;;;;;;7335723;19;154181;-14
2021/12/13 19:50:51;;;;;;;1.67;1.58;;;;;;;;;;7335304;19;153523;-14
2021/12/13 19:53:28;;;;;;;2.22;1.75;;;;;;;;;;7332025;19;161827;-13
2021/12/13 19:56:04;;;;;;;1.90;1.80;;;;;;;;;;7335190;19;162414;-14
2021/12/13 19:58:39;;;;;;;5.38;1.90;;;;;;;;;;7334300;19;154620;-15
2021/12/13 20:01:17;;;;;;;1.60;1.50;;;;;;;;;;7335596;19;153543;-15
2021/12/13 20:03:57;;;;;;;2.03;1.65;;;;;;;;;;7334573;19;161960;-16
2021/12/13 20:06:41;;;;;;;1.67;1.58;;;;;;;;;;7333380;19;162624;-15
2021/12/13 20:09:18;;;;;;;1.70;1.60;;;;;;;;;;7335094;19;154035;-13
2021/12/13 20:11:52;;;;;;;1.75;1.65;;;;;;;;;;7335492;19;153588;-13
2021/12/13 20:14:28;;;;;;;1.63;1.52;;;;;;;;;;7329642;19;161822;-13
2021/12/13 20:17:03;;;;;;;2.65;1.73;;;;;;;;;;7331717;19;162371;-14
2021/12/13 20:19:39;;;;;;;1.98;1.73;;;;;;;;;;7334045;19;154106;-13
2021/12/13 20:22:15;;;;;;;2.10;1.90;;;;;;;;;;7332012;19;153598;-14
2021/12/13 20:24:50;;;;;;;2.25;2.05;;;;;;;;;;7330227;19;161973;-13
2021/12/13 20:27:27;;;;;;;2.63;2.42;;;;;;;;;;7331412;19;162542;-15
2021/12/13 20:30:02;;;;;;;4.05;2.85;;;;;;;;;;7332846;19;154243;-14
2021/12/13 20:32:40;;;;;;;3.55;2.83;;;;;;;;;;7331585;19;153625;-14
2021/12/13 20:35:19;;;;;;;3.15;2.95;;;;;;;;;;7331888;19;161940;-14
2021/12/13 20:37:57;;;;;;;2.50;2.30;;;;;;;;;;7329056;19;162395;-14
2021/12/13 20:40:38;;;;;;;1.80;1.70;;;;;;;;;;7330880;19;154055;-14
2021/12/13 20:43:27;;;;;;;2.00;1.80;;;;;;;;;;7329956;19;153697;-15
2021/12/13 20:46:02;;;;;;;1.88;1.77;;;;;;;;;;7331568;19;161690;-14
2021/12/13 20:48:38;;;;;;;1.92;1.83;;;;;;;;;;7333868;19;162692;-15
2021/12/13 20:51:15;;;;;;;2.13;1.92;;;;;;;;;;7333839;19;154104;-14
2021/12/13 20:53:48;;;;;;;2.33;2.22;;;;;;;;;;7332789;19;153688;-13
2021/12/13 20:56:25;;;;;;;2.40;1.88;;;;;;;;;;7331873;19;161903;-13
2021/12/13 20:59:02;;;;;;;2.10;1.95;;;;;;;;;;7334295;19;162381;-14
2021/12/13 21:01:39;;;;;;;2.22;2.03;;;;;;;;;;7333473;19;154179;-15
2021/12/13 21:04:13;;;;;;;2.40;2.22;;;;;;;;;;7333527;19;153547;-15
2021/12/13 21:06:55;;;;;;;2.28;2.08;;;;;;;;;;7330217;19;161797;-14
2021/12/13 21:09:31;;;;;;;2.00;1.90;;;;;;;;;;7330127;19;162433;-14
2021/12/13 21:12:06;;;;;;;2.22;2.03;;;;;;;;;;7333567;19;153968;-14
2021/12/13 21:14:42;;;;;;;4.75;2.53;;;;;;;;;;7329379;19;153540;-14
2021/12/13 21:17:20;;;;;;;2.20;2.00;;;;;;;;;;7331463;19;161890;-14
2021/12/13 21:19:56;;;;;;;2.33;2.13;;;;;;;;;;7331959;19;162432;-14
2021/12/13 21:22:37;;;;;;;2.28;2.13;;;;;;;;;;7332984;19;153979;-15
2021/12/13 21:25:14;;;;;;;2.15;1.95;;;;;;;;;;7333330;19;153584;-15
2021/12/13 21:27:50;;;;;;;2.15;2.03;;;;;;;;;;7329506;19;162037;-15
2021/12/13 21:30:26;;;;;;;4.15;2.33;;;;;;;;;;7329069;19;162338;-15
2021/12/13 21:32:58;;;;;;;2.30;2.10;;;;;;;;;;7332678;19;153942;-14
2021/12/13 21:35:39;;;;;;;3.30;2.13;;;;;;;;;;7329142;19;153736;-14
2021/12/13 21:41:07;;;;;;;2.10;2.00;;;;;;;;;;7331313;19;162663;-14
2021/12/13 21:43:45;;;;;;;2.03;1.92;;;;;;;;;;7331251;19;154425;-24
2021/12/13 21:46:25;;;;;;;1.92;1.80;;;;;;;;;;7331551;19;153631;-16
2021/12/13 21:49:11;;;;;;;1.90;1.80;;;;;;;;;;7330633;19;163986;-27
2021/12/13 21:51:46;;;;;;;1.98;1.88;;;;;;;;;;7336788;19;162368;-15
2021/12/13 21:54:24;;;;;;;1.90;1.80;;;;;;;;;;7338859;19;153972;-15
2021/12/13 21:56:58;;;;;;;2.00;1.90;;;;;;;;;;7338548;19;153472;-14
2021/12/13 21:59:37;;;;;;;1.70;1.60;;;;;;;;;;7339147;19;162416;-15
2021/12/13 22:02:12;;;;;;;1.83;1.70;;;;;;;;;;7338017;19;162529;-15
2021/12/13 22:04:48;;;;;;;2.08;1.85;;;;;;;;;;7338772;19;154008;-16
2021/12/13 22:07:23;;;;;;;2.35;1.90;;;;;;;;;;7338441;19;153459;-14
2021/12/13 22:10:01;;;;;;;1.85;1.75;;;;;;;;;;7338392;19;161772;-15
2021/12/13 22:12:40;;;;;;;1.90;1.80;;;;;;;;;;7338604;19;162386;-14
2021/12/13 22:15:15;;;;;;;2.13;1.92;;;;;;;;;;7337699;19;154176;-14
2021/12/13 22:17:52;;;;;;;2.47;1.90;;;;;;;;;;7337777;19;153528;-15
2021/12/13 22:20:28;;;;;;;1.80;1.70;;;;;;;;;;7338383;19;162080;-14
2021/12/13 22:23:03;;;;;;;1.73;1.52;;;;;;;;;;7335785;19;163128;-14
2021/12/13 22:25:40;;;;;;;1.80;1.70;;;;;;;;;;7335414;19;155355;-14
2021/12/13 22:28:14;;;;;;;1.70;1.60;;;;;;;;;;7338226;19;153536;-14
2021/12/13 22:30:48;;;;;;;1.80;1.70;;;;;;;;;;7334588;19;161869;-14
2021/12/13 22:33:22;;;;;;;1.85;1.75;;;;;;;;;;7336711;19;162389;-15
2021/12/13 22:35:55;;;;;;;1.40;1.40;;;;;;;;;;7335834;19;154042;-15
2021/12/13 22:38:32;;;;;;;1.67;1.58;;;;;;;;;;7337194;19;153549;-15
2021/12/13 22:41:11;;;;;;;1.67;1.52;;;;;;;;;;7336742;19;161839;-15
2021/12/13 22:43:45;;;;;;;1.60;1.50;;;;;;;;;;7336361;19;162256;-15
2021/12/13 22:46:25;;;;;;;1.70;1.60;;;;;;;;;;7335924;19;154063;-15
2021/12/13 22:49:01;;;;;;;1.77;1.67;;;;;;;;;;7336850;19;153414;-15
2021/12/13 22:51:35;;;;;;;1.65;1.55;;;;;;;;;;7335212;19;161830;-14
2021/12/13 22:54:09;;;;;;;1.60;1.50;;;;;;;;;;7335953;19;162339;-14
2021/12/13 22:56:44;;;;;;;1.75;1.65;;;;;;;;;;7334868;19;154030;-14
2021/12/13 22:59:20;;;;;;;1.60;1.50;;;;;;;;;;7334356;19;153695;-15
2021/12/13 23:01:57;;;;;;;1.90;1.80;;;;;;;;;;7327834;19;162150;-15
2021/12/13 23:04:32;;;;;;;1.70;1.60;;;;;;;;;;7332849;19;163928;-16
2021/12/13 23:07:09;;;;;;;1.35;1.33;;;;;;;;;;7329982;19;154076;-15
2021/12/13 23:09:48;;;;;;;1.80;1.70;;;;;;;;;;7333438;19;153654;-16
2021/12/13 23:15:20;;;;;;;1.40;1.40;;;;;;;;;;7328584;19;162506;-14
2021/12/13 23:17:53;;;;;;;1.25;1.23;;;;;;;;;;7329322;19;154045;-14
2021/12/13 23:20:26;;;;;;;1.47;1.40;;;;;;;;;;7329505;19;153515;-15
2021/12/13 23:22:59;;;;;;;1.20;1.20;;;;;;;;;;7330817;19;161812;-14
2021/12/13 23:25:34;;;;;;;1.63;1.52;;;;;;;;;;7336557;19;162342;-14
2021/12/13 23:28:12;;;;;;;1.83;1.73;;;;;;;;;;7336732;19;154342;-14
2021/12/13 23:30:50;;;;;;;1.88;1.40;;;;;;;;;;7332229;19;153530;-10
